Time;durP1;ratioP1;P1;durP2;ratioP2;P2;SDS_P1;SDS_P2;PMS_P1;PMS_P2;Temp;Humidity;BMP_temperature;BMP_pressure;BME280_temperature;BME280_humidity;BME280_pressure;Samples;Min_cycle;Max_cycle;Signal;HPM_P1;HPM_P2
2022/08/31 00:05:43;;;;;;;6.70;3.35;;;;;;;15.63;67.56;101209.06;5005509;28;20073;-42
2022/08/31 00:08:10;;;;;;;7.32;3.85;;;;;;;15.63;67.58;101208.19;5032614;28;20045;-39
2022/08/31 00:10:40;;;;;;;6.32;3.30;;;;;;;15.62;67.25;101204.72;5023074;28;20120;-38
2022/08/31 00:13:11;;;;;;;6.13;3.28;;;;;;;15.59;67.48;101199.53;5018966;28;20048;-40
2022/08/31 00:15:37;;;;;;;5.57;2.40;;;;;;;15.56;67.31;101202.13;5004099;28;20421;-38
2022/08/31 00:18:04;;;;;;;6.90;3.42;;;;;;;15.55;67.45;101205.63;5024854;28;20042;-42
2022/08/31 00:20:32;;;;;;;7.97;3.55;;;;;;;15.52;67.28;101200.41;5023112;28;20046;-38
2022/08/31 00:23:02;;;;;;;9.85;4.57;;;;;;;15.51;67.31;101198.69;5003717;28;20072;-39
2022/08/31 00:25:30;;;;;;;7.22;4.03;;;;;;;15.47;67.32;101204.81;5024927;28;20046;-38
2022/08/31 00:27:56;;;;;;;8.32;4.57;;;;;;;15.44;67.81;101207.41;5003878;28;20045;-39
2022/08/31 00:30:23;;;;;;;5.75;2.60;;;;;;;15.40;66.98;101202.22;5020465;28;20500;-39
2022/08/31 00:32:50;;;;;;;6.15;4.13;;;;;;;15.39;67.33;101210.03;5022173;28;20052;-38
2022/08/31 00:35:17;;;;;;;8.15;3.83;;;;;;;15.37;67.20;101220.50;5005411;28;20057;-41
2022/08/31 00:37:44;;;;;;;7.45;2.55;;;;;;;15.34;67.41;101211.81;5006719;28;20433;-40
2022/08/31 00:40:11;;;;;;;8.27;3.47;;;;;;;15.30;67.66;101205.72;5007275;28;20045;-40
2022/08/31 00:42:38;;;;;;;7.88;3.83;;;;;;;15.27;67.78;101205.75;5003157;28;20053;-40
2022/08/31 00:45:07;;;;;;;6.53;4.18;;;;;;;15.25;67.77;101216.19;4993652;28;20474;-39
2022/08/31 00:47:34;;;;;;;12.25;4.18;;;;;;;15.22;68.01;101217.94;5008975;28;20111;-39
2022/08/31 00:50:05;;;;;;;10.98;4.55;;;;;;;15.21;67.96;101216.22;5008417;28;20137;-40
2022/08/31 00:52:36;;;;;;;11.45;4.85;;;;;;;15.15;67.86;101212.75;5009427;28;20104;-38
2022/08/31 00:55:12;;;;;;;9.57;4.38;;;;;;;15.11;67.88;101212.75;5007763;28;20172;-38
2022/08/31 00:57:44;;;;;;;8.95;3.17;;;;;;;15.11;68.11;101205.81;5007575;28;20586;-39
2022/08/31 01:00:15;;;;;;;7.10;2.53;;;;;;;15.10;68.36;101204.06;5007326;28;20425;-38
2022/08/31 01:02:42;;;;;;;8.80;4.60;;;;;;;15.10;67.89;101208.41;4971057;28;20104;-39
2022/08/31 01:05:10;;;;;;;7.85;4.47;;;;;;;15.09;68.39;101204.94;5005817;28;20104;-41
2022/08/31 01:07:37;;;;;;;9.20;3.88;;;;;;;15.08;68.02;101202.31;5010707;28;20112;-40
2022/08/31 01:10:05;;;;;;;6.25;4.00;;;;;;;15.07;68.29;101201.47;5005768;28;20046;-36
2022/08/31 01:12:32;;;;;;;11.75;4.22;;;;;;;15.04;68.30;101209.31;5011151;28;20108;-38
2022/08/31 01:15:04;;;;;;;8.43;4.25;;;;;;;15.04;68.48;101209.31;5011284;28;20046;-38
2022/08/31 01:17:35;;;;;;;12.88;4.95;;;;;;;15.02;68.53;101211.03;5007112;28;20041;-38
2022/08/31 01:25:38;;;;;;;11.88;4.82;;;;;;;15.44;68.84;101202.19;5035884;27;20401;-41
2022/08/31 01:28:07;;;;;;;7.20;4.45;;;;;;;15.13;69.09;101206.66;5017645;28;20072;-39
2022/08/31 01:30:35;;;;;;;10.68;4.57;;;;;;;15.07;69.44;101204.09;5018340;28;20050;-41
2022/08/31 01:33:02;;;;;;;9.13;4.22;;;;;;;15.04;69.19;101193.66;5017811;28;20104;-40
2022/08/31 01:35:31;;;;;;;8.02;4.90;;;;;;;15.01;68.92;101198.88;5021838;28;20100;-39
2022/08/31 01:37:58;;;;;;;8.25;4.35;;;;;;;14.98;68.86;101204.09;5015983;28;20100;-41
2022/08/31 01:40:33;;;;;;;10.20;4.28;;;;;;;14.94;68.80;101202.38;5012509;28;20061;-39
2022/08/31 01:43:00;;;;;;;8.07;4.78;;;;;;;14.93;69.15;101201.47;5020695;28;20052;-40
2022/08/31 01:45:27;;;;;;;8.98;3.35;;;;;;;14.92;69.19;101204.13;5017178;28;20354;-39
2022/08/31 01:47:53;;;;;;;6.95;4.22;;;;;;;14.88;69.22;101198.91;5021034;28;20580;-40
2022/08/31 01:50:20;;;;;;;7.63;4.10;;;;;;;14.88;68.67;101198.03;5019049;28;20054;-40
2022/08/31 01:52:47;;;;;;;9.65;5.15;;;;;;;14.88;69.37;101192.81;5018345;28;20054;-38
2022/08/31 01:55:13;;;;;;;8.25;4.75;;;;;;;14.86;69.36;101205.84;5022626;28;20100;-39
2022/08/31 01:57:40;;;;;;;10.48;5.00;;;;;;;14.85;69.40;101198.91;5016843;28;20105;-37
2022/08/31 02:00:09;;;;;;;7.18;4.78;;;;;;;14.84;68.86;101196.31;5020218;28;20046;-41
2022/08/31 02:02:35;;;;;;;8.45;4.50;;;;;;;14.79;69.25;101183.25;5016072;28;20046;-37
2022/08/31 02:05:03;;;;;;;8.60;4.88;;;;;;;14.80;69.37;101185.03;5018482;28;20045;-36
2022/08/31 02:07:30;;;;;;;6.15;4.47;;;;;;;14.78;69.50;101191.97;5016551;28;20100;-38
2022/08/31 02:09:57;;;;;;;9.10;5.07;;;;;;;14.77;69.52;101188.47;5012796;28;20045;-38
2022/08/31 02:12:24;;;;;;;9.52;3.60;;;;;;;14.77;69.48;101187.63;5015661;28;20504;-39
2022/08/31 02:14:50;;;;;;;9.70;4.50;;;;;;;14.76;69.40;101188.47;5012572;28;20046;-40
2022/08/31 02:17:17;;;;;;;11.93;5.70;;;;;;;14.73;69.46;101186.72;5015887;28;20117;-39
2022/08/31 02:19:44;;;;;;;7.90;4.85;;;;;;;14.72;69.67;101197.16;5010769;28;20108;-37
2022/08/31 02:22:10;;;;;;;8.35;5.38;;;;;;;14.71;69.69;101191.09;5015503;28;20076;-38
2022/08/31 02:24:37;;;;;;;11.77;5.28;;;;;;;14.70;69.85;101191.97;5016323;28;20042;-38
2022/08/31 02:27:04;;;;;;;15.57;5.70;;;;;;;14.69;70.19;101197.19;5017256;28;20388;-41
2022/08/31 02:29:32;;;;;;;8.10;5.28;;;;;;;14.68;69.90;101195.41;5014041;28;20096;-40
2022/08/31 02:31:59;;;;;;;9.90;5.50;;;;;;;14.70;69.94;101188.47;5009384;28;20493;-38
2022/08/31 02:34:25;;;;;;;11.63;5.45;;;;;;;14.69;69.89;101187.59;5016189;28;20096;-38
2022/08/31 02:36:52;;;;;;;10.60;5.60;;;;;;;14.72;70.23;101191.94;5000659;28;20045;-38
2022/08/31 02:39:19;;;;;;;8.65;6.35;;;;;;;14.74;70.19;101196.31;5000021;28;20197;-39
2022/08/31 02:41:46;;;;;;;9.23;5.88;;;;;;;14.75;70.28;101191.94;4997056;28;20039;-37
2022/08/31 02:44:12;;;;;;;9.00;5.68;;;;;;;14.77;70.26;101195.44;4994892;28;20054;-39
2022/08/31 02:46:39;;;;;;;10.20;5.53;;;;;;;14.79;70.04;101193.69;4997755;28;20084;-38
2022/08/31 02:49:06;;;;;;;8.45;5.43;;;;;;;14.78;70.41;101194.56;4999763;28;20108;-41
2022/08/31 02:51:32;;;;;;;10.55;5.43;;;;;;;14.79;70.47;101193.69;5003480;28;20099;-38
2022/08/31 02:53:59;;;;;;;11.23;5.57;;;;;;;14.81;70.23;101191.09;5005376;28;20104;-38
2022/08/31 02:56:25;;;;;;;9.57;5.32;;;;;;;14.84;69.80;101191.97;4990493;28;20058;-37
2022/08/31 02:58:53;;;;;;;9.63;5.68;;;;;;;14.89;70.38;101186.72;4976422;28;20047;-39
2022/08/31 03:01:22;;;;;;;9.05;4.57;;;;;;;14.90;70.51;101186.72;4983635;28;20416;-41
2022/08/31 03:03:49;;;;;;;9.77;5.85;;;;;;;14.93;70.23;101185.00;4979266;28;20054;-38
2022/08/31 03:06:17;;;;;;;11.18;5.65;;;;;;;14.93;70.61;101180.63;4994713;28;20047;-39
2022/08/31 03:08:45;;;;;;;13.35;5.90;;;;;;;14.92;70.10;101178.88;4965750;28;20079;-40
2022/08/31 03:11:12;;;;;;;9.00;5.05;;;;;;;14.90;71.12;101181.50;4995284;28;20054;-38
2022/08/31 03:13:39;;;;;;;8.15;4.80;;;;;;;14.88;70.92;101188.47;4995732;28;20304;-41
2022/08/31 03:16:06;;;;;;;10.88;6.78;;;;;;;14.86;70.54;101179.78;5002834;28;20046;-38
2022/08/31 03:18:33;;;;;;;10.15;5.80;;;;;;;14.85;70.67;101183.25;5002146;28;20049;-37
2022/08/31 03:21:01;;;;;;;11.82;5.95;;;;;;;14.87;70.55;101184.13;4991934;28;20120;-38
2022/08/31 03:23:27;;;;;;;13.15;6.72;;;;;;;14.91;70.80;101187.59;5000796;28;20058;-39
2022/08/31 03:25:54;;;;;;;8.93;4.43;;;;;;;14.91;70.98;101182.38;4997862;28;20603;-38
2022/08/31 03:28:21;;;;;;;12.50;6.65;;;;;;;14.94;71.18;101184.09;5000051;28;20073;-39
2022/08/31 03:30:48;;;;;;;12.48;6.15;;;;;;;14.95;70.96;101181.50;4999282;28;20109;-37
2022/08/31 03:33:16;;;;;;;10.15;6.38;;;;;;;14.97;71.47;101181.50;5007423;28;20077;-37
2022/08/31 03:35:44;;;;;;;11.75;6.72;;;;;;;14.98;71.37;101184.09;4995641;28;20046;-39
2022/08/31 03:38:12;;;;;;;9.93;5.18;;;;;;;15.01;71.24;101183.22;4996514;28;20057;-37
2022/08/31 03:40:41;;;;;;;10.48;6.00;;;;;;;15.03;71.30;101181.50;4997361;28;20168;-38
2022/08/31 03:43:10;;;;;;;9.65;6.10;;;;;;;15.04;71.78;101183.22;5005415;28;20126;-42
2022/08/31 03:45:39;;;;;;;11.35;4.22;;;;;;;15.07;71.95;101180.59;5002581;28;20391;-41
2022/08/31 03:48:06;;;;;;;9.70;5.63;;;;;;;15.06;72.06;101176.22;5003227;28;20041;-37
2022/08/31 03:50:40;;;;;;;8.82;5.85;;;;;;;15.09;72.44;101181.44;5001645;28;20042;-38
2022/08/31 03:53:08;;;;;;;11.02;5.15;;;;;;;15.11;72.14;101174.50;4995534;28;20399;-37
2022/08/31 03:55:38;;;;;;;9.88;6.30;;;;;;;15.13;72.22;101174.50;5001061;28;20049;-39
2022/08/31 03:58:05;;;;;;;11.63;5.90;;;;;;;15.15;71.98;101175.34;5000294;28;20050;-38
2022/08/31 04:00:33;;;;;;;10.73;5.30;;;;;;;15.18;71.61;101164.03;4996573;28;20112;-39
2022/08/31 04:03:00;;;;;;;18.70;6.93;;;;;;;15.21;72.02;101164.91;5003872;28;20054;-36
2022/08/31 04:05:28;;;;;;;10.80;4.57;;;;;;;15.23;71.96;101164.88;4990945;28;20402;-39
2022/08/31 04:07:55;;;;;;;11.13;6.75;;;;;;;15.25;71.76;101165.72;4989340;28;20042;-41
2022/08/31 04:10:22;;;;;;;10.70;5.38;;;;;;;15.26;71.72;101159.63;5000824;28;20053;-41
2022/08/31 04:12:49;;;;;;;10.93;5.88;;;;;;;15.27;72.46;101166.63;5000014;28;20045;-38
2022/08/31 04:15:17;;;;;;;11.55;6.22;;;;;;;15.27;72.14;101164.00;5003547;28;20038;-38
2022/08/31 04:17:44;;;;;;;11.73;6.13;;;;;;;15.25;72.17;101170.94;5000982;28;20564;-40
2022/08/31 04:20:11;;;;;;;10.38;5.95;;;;;;;15.22;71.79;101171.84;4994462;28;20099;-40
2022/08/31 04:22:38;;;;;;;14.45;6.05;;;;;;;15.21;72.24;101166.63;4993368;28;20054;-39
2022/08/31 04:25:05;;;;;;;13.45;6.28;;;;;;;15.22;72.30;101170.97;4991524;28;20050;-39
2022/08/31 04:27:32;;;;;;;10.18;5.78;;;;;;;15.20;72.17;101177.94;4995563;28;20497;-37
2022/08/31 04:30:00;;;;;;;9.90;6.18;;;;;;;15.18;71.93;101175.34;5002977;28;20046;-41
2022/08/31 04:32:27;;;;;;;12.52;6.25;;;;;;;15.19;71.64;101178.81;5002218;28;20054;-37
2022/08/31 04:34:55;;;;;;;11.77;6.05;;;;;;;15.18;72.11;101177.06;4997332;28;20459;-38
2022/08/31 04:37:22;;;;;;;12.32;4.93;;;;;;;15.18;72.67;101177.06;5003553;28;20707;-38
2022/08/31 04:39:49;;;;;;;13.75;6.40;;;;;;;15.16;72.34;101180.56;5001440;28;20059;-40
2022/08/31 04:42:18;;;;;;;11.57;3.90;;;;;;;15.15;72.22;101172.72;4999135;28;20629;-39
2022/08/31 04:44:44;;;;;;;18.48;6.72;;;;;;;15.17;71.97;101178.84;4996021;28;20050;-39
2022/08/31 04:47:11;;;;;;;11.20;5.55;;;;;;;15.15;72.51;101184.06;4992398;28;20137;-37
2022/08/31 04:49:38;;;;;;;13.88;6.22;;;;;;;15.16;72.27;101172.72;4998426;28;20057;-40
2022/08/31 04:52:05;;;;;;;11.05;4.78;;;;;;;15.15;72.54;101184.06;4999318;28;20720;-41
2022/08/31 04:54:32;;;;;;;11.25;6.22;;;;;;;15.14;72.72;101182.28;4990289;28;20616;-39
2022/08/31 04:56:59;;;;;;;9.30;4.35;;;;;;;15.14;72.22;101184.91;4998956;28;20413;-39
2022/08/31 04:59:26;;;;;;;12.05;5.82;;;;;;;15.13;72.42;101183.19;4995676;28;20124;-36
2022/08/31 05:01:54;;;;;;;14.82;5.88;;;;;;;15.10;72.61;101184.94;5001056;28;20045;-39
2022/08/31 05:04:27;;;;;;;12.15;5.88;;;;;;;15.08;72.22;101187.56;4998053;28;20141;-39
2022/08/31 05:06:54;;;;;;;9.27;5.38;;;;;;;15.06;72.40;101186.66;4992773;28;20049;-39
2022/08/31 05:09:22;;;;;;;9.07;5.80;;;;;;;15.06;72.23;101185.81;5000597;28;20054;-38
2022/08/31 05:11:51;;;;;;;13.50;6.18;;;;;;;15.03;72.63;101192.78;5000601;28;20054;-38
2022/08/31 05:14:20;;;;;;;11.13;5.60;;;;;;;14.99;72.67;101200.59;4998339;28;20046;-40
2022/08/31 05:16:48;;;;;;;11.65;5.25;;;;;;;14.98;72.80;101204.09;4996651;28;20494;-41
2022/08/31 05:19:15;;;;;;;13.55;5.85;;;;;;;14.98;72.29;101210.19;4992034;28;20094;-38
2022/08/31 05:21:42;;;;;;;9.50;6.40;;;;;;;15.00;72.72;101199.75;4978760;28;20073;-38
2022/08/31 05:24:13;;;;;;;12.25;6.10;;;;;;;15.00;72.48;101207.59;4977882;28;20054;-41
2022/08/31 05:26:44;;;;;;;11.70;5.80;;;;;;;15.02;72.71;101211.03;4961479;28;20054;-39
2022/08/31 05:29:13;;;;;;;11.00;4.90;;;;;;;15.03;72.78;101212.78;4975941;28;20490;-40
2022/08/31 05:31:41;;;;;;;16.58;5.43;;;;;;;15.03;72.83;101207.59;4980049;28;20046;-38
2022/08/31 05:34:08;;;;;;;10.55;3.60;;;;;;;15.03;72.90;101208.44;4986667;28;20442;-39
2022/08/31 05:36:34;;;;;;;12.40;5.45;;;;;;;15.05;72.29;101205.81;4972748;28;20046;-39
2022/08/31 05:39:01;;;;;;;11.45;3.67;;;;;;;15.07;72.54;101208.44;4981173;28;20434;-40
2022/08/31 05:41:29;;;;;;;9.57;4.63;;;;;;;15.08;72.60;101205.81;4980050;28;20050;-39
2022/08/31 05:43:56;;;;;;;9.15;5.13;;;;;;;15.04;72.38;101215.38;4985194;28;20050;-40
2022/08/31 05:46:22;;;;;;;11.70;4.53;;;;;;;15.04;72.69;101209.31;4982639;28;20109;-39
2022/08/31 05:48:49;;;;;;;8.82;4.60;;;;;;;15.02;73.11;101213.66;4982390;28;20046;-42
2022/08/31 05:51:17;;;;;;;10.63;5.53;;;;;;;15.04;72.72;101212.75;4978571;28;20094;-39
2022/08/31 05:53:45;;;;;;;13.68;5.25;;;;;;;15.06;73.16;101212.75;4995553;28;20050;-39
2022/08/31 05:56:14;;;;;;;9.43;5.25;;;;;;;15.06;72.98;101210.16;4999637;28;20437;-39
2022/08/31 05:58:46;;;;;;;11.52;4.63;;;;;;;15.06;73.21;101210.16;4997163;28;20046;-41
2022/08/31 06:01:15;;;;;;;11.40;5.38;;;;;;;15.09;72.35;101206.66;4995006;28;20053;-40
2022/08/31 06:03:42;;;;;;;11.10;4.47;;;;;;;15.11;72.71;101211.03;4997892;28;20054;-39
2022/08/31 06:06:10;;;;;;;9.25;3.00;;;;;;;15.15;72.71;101209.25;4997308;28;20386;-39
2022/08/31 06:08:38;;;;;;;7.00;4.00;;;;;;;15.15;72.96;101212.75;5002434;28;20061;-40
2022/08/31 06:11:06;;;;;;;10.27;5.35;;;;;;;15.14;72.84;101211.00;4998648;28;20058;-37
2022/08/31 06:13:33;;;;;;;9.38;4.63;;;;;;;15.14;72.52;101208.38;5006088;28;20674;-37
2022/08/31 06:16:01;;;;;;;7.63;4.03;;;;;;;15.18;73.08;101211.00;5002744;28;20050;-39
2022/08/31 06:18:27;;;;;;;9.95;4.25;;;;;;;15.15;72.66;101212.75;5007756;28;20061;-38
2022/08/31 06:21:11;;;;;;;8.75;5.13;;;;;;;15.12;72.86;101212.75;5004435;28;20041;-39
2022/08/31 06:23:41;;;;;;;12.15;4.43;;;;;;;15.21;72.74;101216.22;5009600;28;20057;-40
2022/08/31 06:26:11;;;;;;;10.40;5.03;;;;;;;15.30;72.66;101213.56;5000352;28;20105;-42
2022/08/31 06:28:40;;;;;;;9.50;4.35;;;;;;;15.33;73.14;101210.94;5003699;28;20042;-38
2022/08/31 06:31:14;;;;;;;8.63;4.40;;;;;;;15.39;72.76;101208.31;5000660;28;20046;-36
2022/08/31 06:33:42;;;;;;;10.38;4.45;;;;;;;15.47;72.47;101212.63;5005342;28;20561;-39
2022/08/31 06:36:11;;;;;;;7.13;3.92;;;;;;;15.57;72.92;101213.47;5006062;28;20042;-40
2022/08/31 06:38:39;;;;;;;8.20;4.65;;;;;;;15.60;73.13;101211.69;5000850;28;20108;-40
2022/08/31 06:41:16;;;;;;;9.75;4.35;;;;;;;15.70;72.73;101214.28;5000151;28;20050;-40
2022/08/31 06:43:44;;;;;;;8.88;4.97;;;;;;;15.79;72.67;101208.97;5000795;28;20065;-39
2022/08/31 06:46:12;;;;;;;11.43;4.22;;;;;;;15.85;72.43;101206.34;4996949;28;20928;-39
2022/08/31 06:48:40;;;;;;;9.13;4.43;;;;;;;15.92;72.71;101213.28;4997090;28;20045;-40
2022/08/31 06:51:08;;;;;;;7.88;4.25;;;;;;;15.96;72.44;101218.47;5006355;28;20054;-36
2022/08/31 06:53:39;;;;;;;7.85;4.13;;;;;;;15.97;72.12;101213.25;5003761;28;20050;-37
2022/08/31 06:56:08;;;;;;;8.93;4.32;;;;;;;16.01;72.13;101216.72;4998237;28;20046;-40
2022/08/31 06:58:48;;;;;;;10.10;4.75;;;;;;;16.06;72.44;101222.78;4996114;28;20050;-39
2022/08/31 07:01:25;;;;;;;8.95;4.43;;;;;;;16.12;71.95;101211.41;4997488;28;20049;-41
2022/08/31 07:04:03;;;;;;;9.32;4.47;;;;;;;16.16;71.81;101219.22;4999301;28;20049;-37
2022/08/31 07:06:33;;;;;;;9.95;3.92;;;;;;;16.21;71.46;101220.94;4997718;28;20045;-39
2022/08/31 07:09:03;;;;;;;6.65;3.25;;;;;;;16.34;72.18;101222.56;4999048;28;21613;-38
2022/08/31 07:11:34;;;;;;;9.63;3.80;;;;;;;16.46;71.22;101224.22;4994469;28;20053;-40
2022/08/31 07:14:03;;;;;;;9.80;4.40;;;;;;;16.50;71.35;101223.31;4994594;28;20054;-37
2022/08/31 07:16:30;;;;;;;9.45;4.75;;;;;;;16.52;71.13;101225.94;5000504;28;20042;-39
2022/08/31 07:19:02;;;;;;;7.40;4.13;;;;;;;16.71;71.80;101224.00;5000464;28;20134;-41
2022/08/31 07:21:33;;;;;;;8.48;3.90;;;;;;;16.86;70.11;101229.97;4995315;28;20052;-41
2022/08/31 07:24:04;;;;;;;6.78;3.88;;;;;;;16.89;70.60;101225.56;4996105;28;20069;-40
2022/08/31 07:26:35;;;;;;;11.80;4.45;;;;;;;16.91;69.99;101218.56;5003458;28;20123;-38
2022/08/31 07:29:06;;;;;;;7.85;3.28;;;;;;;16.96;70.43;101231.63;5005852;28;20791;-37
2022/08/31 07:31:49;;;;;;;7.13;3.63;;;;;;;17.51;70.96;101221.41;5003334;28;20064;-39
2022/08/31 07:34:26;;;;;;;6.75;3.30;;;;;;;18.37;69.39;101225.41;5002030;28;20065;-39
2022/08/31 07:42:38;;;;;;;5.38;2.38;;;;;;;19.90;65.68;101211.97;5000454;28;20461;-37
2022/08/31 07:45:10;;;;;;;5.68;3.13;;;;;;;19.99;64.95;101222.31;5000546;28;20038;-42
2022/08/31 07:47:44;;;;;;;4.93;2.00;;;;;;;20.06;65.00;101222.16;5001546;28;20449;-37
2022/08/31 07:50:13;;;;;;;5.20;3.45;;;;;;;20.23;63.75;101225.22;5004084;28;20159;-37
2022/08/31 07:52:47;;;;;;;7.38;3.50;;;;;;;20.38;64.02;101213.50;5005343;28;20053;-39
2022/08/31 07:55:18;;;;;;;6.40;1.88;;;;;;;20.28;63.07;101223.38;5007461;28;20430;-42
2022/08/31 07:57:46;;;;;;;7.38;3.22;;;;;;;20.27;63.08;101216.38;5006265;28;20074;-38
2022/08/31 08:00:19;;;;;;;8.35;3.22;;;;;;;20.28;62.83;101218.13;5005376;28;20081;-39
2022/08/31 08:02:47;;;;;;;7.90;2.90;;;;;;;20.18;62.83;101216.59;5006015;28;20069;-37
2022/08/31 08:05:21;;;;;;;6.50;2.45;;;;;;;20.13;62.69;101214.06;4999285;28;20034;-41
2022/08/31 08:07:57;;;;;;;4.70;2.90;;;;;;;20.07;63.52;101224.75;4988816;28;20391;-40
2022/08/31 08:10:26;;;;;;;6.95;2.55;;;;;;;20.11;63.28;101215.03;4979735;28;20490;-41
2022/08/31 08:13:01;;;;;;;6.03;2.42;;;;;;;20.15;63.10;101209.66;4980992;28;20130;-42
2022/08/31 08:15:41;;;;;;;8.13;2.53;;;;;;;20.17;62.72;101220.16;4984958;28;20053;-39
2022/08/31 08:18:10;;;;;;;2.67;1.88;;;;;;;20.21;62.67;101216.53;4984709;28;20042;-39
2022/08/31 08:20:38;;;;;;;;;;;;;;;20.19;62.32;101213.06;4984666;28;20061;-39
2022/08/31 08:23:11;;;;;;;10.13;3.10;;;;;;;20.24;62.12;101224.34;4988280;28;19929;-39
2022/08/31 08:25:52;;;;;;;7.10;2.05;;;;;;;20.49;62.19;101226.34;4984629;28;20467;-38
2022/08/31 08:28:20;;;;;;;4.47;1.73;;;;;;;20.90;61.29;101227.97;4983910;28;20043;-38
2022/08/31 08:31:11;;;;;;;4.53;3.08;;;;;;;21.06;60.85;101229.28;4981759;28;20065;-39
2022/08/31 08:33:38;;;;;;;4.30;1.92;;;;;;;21.65;60.13;101212.66;4976623;28;20058;-40
2022/08/31 08:36:06;;;;;;;5.90;2.38;;;;;;;21.76;58.64;101221.13;4978113;28;20046;-38
2022/08/31 08:38:37;;;;;;;5.00;2.42;;;;;;;21.51;58.63;101216.56;4986963;28;20132;-41
2022/08/31 08:41:11;;;;;;;4.88;2.65;;;;;;;21.22;58.47;101210.41;5000778;28;20048;-43
2022/08/31 08:43:48;;;;;;;4.82;1.52;;;;;;;21.39;58.38;101223.09;5001974;28;20417;-45
2022/08/31 08:46:27;;;;;;;7.07;3.65;;;;;;;21.35;58.82;101217.94;5002118;28;20049;-40
2022/08/31 08:49:18;;;;;;;3.70;1.13;;;;;;;21.40;58.79;101221.28;5002817;28;20513;-41
2022/08/31 08:51:51;;;;;;;6.85;2.13;;;;;;;21.25;58.31;101220.84;4999250;28;20046;-37
2022/08/31 08:54:33;;;;;;;6.55;2.53;;;;;;;21.05;58.60;101224.91;5004411;28;20489;-40
2022/08/31 08:57:08;;;;;;;5.82;1.88;;;;;;;21.11;58.51;101217.75;5003088;28;20532;-38
2022/08/31 08:59:35;;;;;;;4.80;2.50;;;;;;;21.21;58.22;101213.91;5003008;28;20054;-40
2022/08/31 09:02:05;;;;;;;6.03;2.47;;;;;;;21.50;58.04;101214.84;5000563;28;20120;-43
2022/08/31 09:05:13;;;;;;;4.88;2.17;;;;;;;21.45;57.06;101216.78;4987862;28;20059;-41
2022/08/31 09:10:35;;;;;;;5.28;1.30;;;;;;;22.42;57.51;101211.97;5032409;28;20401;-40
2022/08/31 09:13:22;;;;;;;3.40;0.88;;;;;;;22.95;54.36;101220.75;4991997;28;20054;-39
2022/08/31 09:21:29;;;;;;;3.78;1.10;;;;;;;22.21;52.11;101217.06;5056333;28;20387;-40
2022/08/31 09:32:08;;;;;;;3.65;1.33;;;;;;;22.21;53.07;101216.19;5031857;27;20407;-41
2022/08/31 09:34:39;;;;;;;4.35;0.90;;;;;;;22.77;51.84;101219.63;5021199;28;20045;-40
2022/08/31 09:45:16;;;;;;;2.47;0.60;;;;;;;24.25;48.11;101205.25;5082322;27;20893;-40
2022/08/31 09:55:42;;;;;;;4.03;2.25;;;;;;;23.69;47.91;101210.09;5039595;28;20401;-43
2022/08/31 09:58:09;;;;;;;7.88;1.85;;;;;;;23.85;48.35;101202.41;5023490;28;20053;-41
2022/08/31 10:00:41;;;;;;;2.67;1.63;;;;;;;23.86;48.33;101212.94;5023333;28;20052;-38
2022/08/31 10:03:28;;;;;;;3.65;2.03;;;;;;;24.04;47.02;101209.63;5023282;28;20050;-39
2022/08/31 10:05:55;;;;;;;4.47;2.17;;;;;;;24.31;47.28;101207.63;5019942;28;20053;-42
2022/08/31 10:08:56;;;;;;;7.40;2.30;;;;;;;24.65;45.56;101207.94;5021742;28;20498;-39
2022/08/31 10:11:28;;;;;;;4.30;3.15;;;;;;;24.49;45.10;101202.47;5037443;28;20064;-43
2022/08/31 10:14:04;;;;;;;3.67;2.28;;;;;;;24.56;45.89;101201.28;5040157;28;20050;-40
2022/08/31 10:16:40;;;;;;;6.75;2.13;;;;;;;24.75;45.42;101197.81;5041856;28;20076;-41
2022/08/31 10:19:12;;;;;;;4.68;2.25;;;;;;;24.88;45.03;101201.66;5042497;28;20041;-38
2022/08/31 10:21:50;;;;;;;4.30;2.38;;;;;;;24.99;43.66;101201.19;5043557;28;20041;-41
2022/08/31 10:27:16;;;;;;;3.40;1.17;;;;;;;25.05;43.06;101192.09;5058094;28;20402;-39
2022/08/31 10:30:06;;;;;;;4.65;1.20;;;;;;;24.94;42.14;101191.72;5051167;28;20049;-41
2022/08/31 10:32:40;;;;;;;3.05;0.77;;;;;;;24.65;42.43;101197.34;5054585;28;20045;-42
2022/08/31 10:35:18;;;;;;;10.50;2.05;;;;;;;24.39;43.42;101194.91;5050986;28;20071;-41
2022/08/31 10:40:34;;;;;;;4.30;0.80;;;;;;;24.81;44.30;101186.06;5026899;28;20388;-43
2022/08/31 10:45:43;;;;;;;2.53;0.80;;;;;;;24.83;42.40;101189.53;5091963;27;20392;-43
2022/08/31 10:48:11;;;;;;;5.47;1.08;;;;;;;24.65;42.94;101190.28;5043124;28;20643;-38
2022/08/31 10:50:47;;;;;;;1.88;0.80;;;;;;;24.37;43.33;101188.84;5043771;28;20045;-40
2022/08/31 10:59:01;;;;;;;2.20;0.60;;;;;;;24.30;43.68;101176.78;5038716;28;20421;-40
2022/08/31 11:12:38;;;;;;;3.55;1.88;;;;;;;24.08;42.33;101182.09;5058481;28;20395;-39
2022/08/31 11:15:37;;;;;;;5.55;1.80;;;;;;;24.06;42.73;101166.28;5022469;28;20096;-39
2022/08/31 11:29:11;;;;;;;3.13;1.38;;;;;;;24.56;41.19;101150.09;5074919;27;20415;-38
2022/08/31 11:31:39;;;;;;;2.17;1.98;;;;;;;24.73;40.33;101146.69;5063422;28;20098;-40
2022/08/31 11:34:24;;;;;;;2.80;1.83;;;;;;;24.80;40.12;101136.69;5061600;28;20067;-44
2022/08/31 11:47:42;;;;;;;4.85;0.77;;;;;;;24.83;39.05;101134.75;5078811;27;20395;-38
2022/08/31 11:50:32;;;;;;;2.35;0.47;;;;;;;24.75;38.87;101128.94;5029169;28;20107;-39
2022/08/31 11:53:15;;;;;;;6.43;1.00;;;;;;;24.60;39.31;101134.00;5039760;28;20104;-41
2022/08/31 11:55:48;;;;;;;3.17;0.85;;;;;;;24.47;38.94;101140.75;5041375;28;20080;-44
2022/08/31 11:58:20;;;;;;;2.97;0.77;;;;;;;24.55;39.86;101128.03;5042433;28;20456;-40
2022/08/31 12:03:52;;;;;;;1.85;0.70;;;;;;;24.62;39.33;101121.53;5039591;27;20389;-42
2022/08/31 12:12:26;;;;;;;3.00;1.45;;;;;;;25.20;38.09;101123.41;5062425;28;20756;-37
2022/08/31 12:17:51;;;;;;;4.25;0.73;;;;;;;24.87;39.07;101127.56;5022667;27;20425;-38
2022/08/31 12:34:16;;;;;;;4.60;1.80;;;;;;;24.49;38.68;101102.69;5026431;28;20404;-37
2022/08/31 12:36:43;;;;;;;2.72;1.95;;;;;;;24.22;39.49;101105.63;5002227;28;20053;-41
2022/08/31 12:39:25;;;;;;;4.22;1.67;;;;;;;24.05;40.26;101108.13;5003193;28;20056;-42
2022/08/31 12:41:56;;;;;;;2.90;1.92;;;;;;;24.07;40.73;101096.56;5034345;28;20049;-40
2022/08/31 12:44:30;;;;;;;2.88;1.70;;;;;;;24.16;40.29;101102.41;5002830;28;20046;-40
2022/08/31 13:02:56;;;;;;;3.85;0.77;;;;;;;24.97;39.62;101089.09;5083295;28;20398;-40
2022/08/31 13:05:28;;;;;;;2.83;0.70;;;;;;;24.97;40.01;101080.28;5024333;28;20049;-38
2022/08/31 13:07:56;;;;;;;2.13;0.68;;;;;;;24.95;39.49;101079.53;5037195;28;20060;-40
2022/08/31 13:10:30;;;;;;;2.58;0.60;;;;;;;24.88;40.11;101085.09;5015144;28;20045;-40
2022/08/31 13:13:03;;;;;;;3.25;1.17;;;;;;;24.95;41.02;101082.16;5018792;28;20046;-42
2022/08/31 13:15:35;;;;;;;4.28;1.25;;;;;;;25.09;41.71;101090.31;5018798;28;20143;-40
2022/08/31 13:18:24;;;;;;;2.08;0.52;;;;;;;25.21;39.86;101083.56;5021823;28;20058;-40
2022/08/31 13:20:55;;;;;;;3.78;1.02;;;;;;;25.32;39.39;101077.72;5019088;28;20096;-37
2022/08/31 13:23:28;;;;;;;2.38;0.98;;;;;;;25.37;39.52;101083.66;5023835;28;20053;-42
2022/08/31 13:26:02;;;;;;;1.90;0.95;;;;;;;25.38;39.99;101085.41;5022742;28;20057;-42
2022/08/31 13:28:33;;;;;;;2.42;0.57;;;;;;;25.38;39.38;101074.78;5019350;28;20493;-40
2022/08/31 13:31:07;;;;;;;4.45;0.80;;;;;;;25.26;40.20;101070.94;5018744;28;20053;-42
2022/08/31 13:33:38;;;;;;;2.08;0.90;;;;;;;25.16;40.39;101075.00;5018874;28;20073;-41
2022/08/31 13:36:31;;;;;;;2.92;1.05;;;;;;;24.98;40.48;101076.69;5015696;28;20211;-42
2022/08/31 13:39:02;;;;;;;4.15;0.70;;;;;;;24.85;40.88;101087.88;5022470;28;20117;-42
2022/08/31 13:41:34;;;;;;;3.25;0.80;;;;;;;24.63;40.90;101086.19;5019510;28;20038;-40
2022/08/31 13:44:08;;;;;;;3.22;0.70;;;;;;;24.52;40.27;101072.59;5021496;28;20038;-42
2022/08/31 13:46:39;;;;;;;1.85;0.60;;;;;;;24.44;40.73;101082.66;5018599;28;20050;-44
2022/08/31 13:52:13;;;;;;;2.25;2.03;;;;;;;24.20;41.08;101080.16;5042115;27;20395;-38
2022/08/31 13:54:40;;;;;;;5.07;2.20;;;;;;;24.07;41.12;101085.97;5009257;28;20050;-38
2022/08/31 13:57:09;;;;;;;3.38;2.20;;;;;;;24.01;41.25;101079.16;5008235;28;20693;-41
2022/08/31 13:59:39;;;;;;;4.28;1.98;;;;;;;24.02;41.53;101082.66;5016444;28;20515;-41